createdAt,value
2019-02-07T00:02:11.398Z,52.30
2019-02-07T00:05:01.967Z,53.17
2019-02-07T00:07:52.093Z,50.33
2019-02-07T00:10:42.013Z,58.70
2019-02-07T00:13:32.096Z,63.85
2019-02-07T00:16:21.915Z,56.92
2019-02-07T00:19:12.384Z,68.40
2019-02-07T00:22:02.383Z,55.40
2019-02-07T00:24:53.316Z,53.17
2019-02-07T00:27:43.184Z,61.63
2019-02-07T00:30:33.396Z,48.95
2019-02-07T00:33:23.486Z,71.40
2019-02-07T00:36:15.977Z,50.80
2019-02-07T00:39:09.085Z,54.73
2019-02-07T00:41:59.454Z,51.45
2019-02-07T00:44:52.431Z,48.83
2019-02-07T00:47:41.205Z,53.35
2019-02-07T00:50:31.259Z,46.60
2019-02-07T00:53:21.373Z,52.27
2019-02-07T00:56:11.126Z,45.70
2019-02-07T00:59:00.813Z,59.38
2019-02-07T01:01:50.606Z,52.08
2019-02-07T01:04:40.595Z,49.73
2019-02-07T01:07:30.252Z,59.13
2019-02-07T01:10:22.475Z,42.70
2019-02-07T01:13:12.821Z,51.55
2019-02-07T01:16:03.015Z,49.75
2019-02-07T01:18:53.072Z,55.83
2019-02-07T01:21:44.113Z,56.60
2019-02-07T01:24:34.204Z,56.80
2019-02-07T01:27:24.131Z,72.45
2019-02-07T01:30:16.665Z,61.50
2019-02-07T01:33:06.286Z,55.70
2019-02-07T01:35:57.857Z,81.32
2019-02-07T01:38:47.952Z,63.42
2019-02-07T01:41:43.429Z,69.20
2019-02-07T01:44:33.561Z,55.95
2019-02-07T01:47:23.745Z,68.97
2019-02-07T01:50:15.132Z,71.50
2019-02-07T01:53:05.834Z,59.38
2019-02-07T01:55:56.152Z,63.10
2019-02-07T01:58:47.354Z,58.28
2019-02-07T02:01:37.461Z,63.90
2019-02-07T02:04:27.314Z,62.62
2019-02-07T02:07:16.716Z,62.15
2019-02-07T02:10:09.942Z,66.25
2019-02-07T02:12:59.852Z,52.27
2019-02-07T02:15:49.482Z,63.40
2019-02-07T02:18:39.193Z,48.50
2019-02-07T02:21:30.164Z,53.78
2019-02-07T02:24:19.870Z,47.50
2019-02-07T02:27:09.993Z,46.88
2019-02-07T02:30:00.273Z,43.50
2019-02-07T02:32:50.582Z,44.45
2019-02-07T02:35:40.850Z,43.75
2019-02-07T02:38:31.007Z,43.70
2019-02-07T02:41:20.753Z,52.17
2019-02-07T02:44:10.752Z,44.33
2019-02-07T02:47:01.017Z,45.12
2019-02-07T02:49:50.623Z,41.75
2019-02-07T02:52:40.783Z,68.25
2019-02-07T02:55:35.753Z,43.42
2019-02-07T02:58:26.641Z,57.83
2019-02-07T03:01:41.735Z,50.75
2019-02-07T03:04:50.557Z,48.75
2019-02-07T03:08:03.897Z,53.63
2019-02-07T03:11:27.975Z,56.77
2019-02-07T03:14:28.557Z,58.13
2019-02-07T03:17:30.565Z,58.38
2019-02-07T03:20:48.309Z,68.45
2019-02-07T03:24:06.250Z,79.90
2019-02-07T03:27:13.637Z,70.08
2019-02-07T03:30:22.159Z,64.97
2019-02-07T03:33:33.543Z,72.55
2019-02-07T03:36:36.531Z,77.45
2019-02-07T03:39:40.241Z,75.87
2019-02-07T03:42:47.736Z,76.50
2019-02-07T03:45:43.452Z,81.00
2019-02-07T03:48:50.335Z,75.10
2019-02-07T03:51:57.951Z,89.95
2019-02-07T03:55:05.834Z,66.17
2019-02-07T03:58:13.328Z,87.05
2019-02-07T04:01:22.569Z,83.78
2019-02-07T04:04:33.907Z,70.80
2019-02-07T04:07:43.186Z,70.97
2019-02-07T04:10:58.056Z,83.47
2019-02-07T04:14:05.350Z,103.72
2019-02-07T04:17:08.646Z,81.95
2019-02-07T04:20:17.366Z,77.37
2019-02-07T04:23:25.268Z,56.45
2019-02-07T04:26:33.991Z,59.88
2019-02-07T04:29:58.283Z,70.17
2019-02-07T04:33:06.389Z,63.70
2019-02-07T04:36:10.485Z,65.97
2019-02-07T04:39:22.301Z,63.80
2019-02-07T04:42:40.443Z,58.08
2019-02-07T04:45:52.341Z,67.15
2019-02-07T04:49:03.933Z,61.68
2019-02-07T04:52:18.909Z,51.08
2019-02-07T04:55:27.933Z,70.08
2019-02-07T04:58:32.256Z,80.40
2019-02-07T05:01:46.919Z,56.55
2019-02-07T05:04:47.521Z,57.75
2019-02-07T05:08:02.011Z,53.17
2019-02-07T05:11:26.307Z,66.40
2019-02-07T05:14:28.845Z,61.73
2019-02-07T05:17:56.133Z,70.37
2019-02-07T05:21:07.724Z,65.03
2019-02-07T05:24:14.092Z,77.32
2019-02-07T05:27:19.747Z,87.72
2019-02-07T05:30:39.950Z,80.47
2019-02-07T05:33:51.937Z,63.48
2019-02-07T05:37:04.634Z,68.33
2019-02-07T05:40:18.501Z,69.37
2019-02-07T05:43:42.478Z,62.17
2019-02-07T05:47:03.596Z,69.87
2019-02-07T05:50:15.597Z,68.37
2019-02-07T05:53:24.317Z,66.00
2019-02-07T05:56:42.361Z,61.13
2019-02-07T06:00:09.926Z,79.05
2019-02-07T06:03:34.214Z,77.75
2019-02-07T06:06:41.501Z,86.55
2019-02-07T06:09:54.017Z,89.85
2019-02-07T06:13:09.297Z,78.85
2019-02-07T06:16:24.056Z,86.53
2019-02-07T06:19:24.690Z,69.97
2019-02-07T06:22:52.050Z,93.75
2019-02-07T06:25:54.117Z,82.27
2019-02-07T06:28:51.989Z,83.42
2019-02-07T06:32:09.731Z,81.72
2019-02-07T06:35:18.653Z,79.60
2019-02-07T06:38:38.435Z,73.87
2019-02-07T06:41:38.007Z,85.62
2019-02-07T06:44:45.639Z,89.65
2019-02-07T06:48:00.306Z,81.32
2019-02-07T06:51:09.439Z,84.58
2019-02-07T06:54:36.492Z,72.32
2019-02-07T06:57:35.182Z,90.57
2019-02-07T07:00:43.905Z,81.90
2019-02-07T07:03:51.193Z,51.35
2019-02-07T07:07:00.221Z,88.95
2019-02-07T07:10:12.634Z,75.22
2019-02-07T07:13:20.228Z,78.33
2019-02-07T07:16:27.928Z,82.60
2019-02-07T07:19:52.116Z,70.78
2019-02-07T07:23:01.455Z,81.45
2019-02-07T07:26:13.247Z,69.67
2019-02-07T07:29:19.513Z,77.20
2019-02-07T07:32:31.616Z,73.47
2019-02-07T07:35:41.131Z,68.45
2019-02-07T07:38:49.063Z,62.40
2019-02-07T07:42:13.150Z,73.12
2019-02-07T07:45:24.942Z,56.98
2019-02-07T07:48:48.926Z,40.98
2019-02-07T07:52:03.696Z,58.00
2019-02-07T07:55:04.019Z,66.25
2019-02-07T07:58:03.834Z,64.80
2019-02-07T08:01:18.801Z,64.97
2019-02-07T08:04:36.640Z,59.08
2019-02-07T08:07:48.841Z,62.10
2019-02-07T08:10:50.811Z,54.35
2019-02-07T08:13:58.405Z,46.65
2019-02-07T08:17:10.511Z,54.23
2019-02-07T08:20:21.693Z,50.10
2019-02-07T08:23:20.786Z,54.45
2019-02-07T08:26:29.612Z,60.55
2019-02-07T08:29:48.647Z,66.95
2019-02-07T08:32:52.796Z,58.23
2019-02-07T08:35:59.942Z,52.53
2019-02-07T08:39:05.502Z,55.17
2019-02-07T08:42:16.711Z,57.25
2019-02-07T08:45:36.802Z,36.63
2019-02-07T08:48:54.288Z,50.83
2019-02-07T08:52:18.417Z,50.43
2019-02-07T08:55:28.985Z,49.85
2019-02-07T08:58:49.689Z,44.13
2019-02-07T09:02:07.219Z,48.68
2019-02-07T09:05:21.878Z,43.13
2019-02-07T09:08:29.579Z,45.40
2019-02-07T09:11:37.483Z,56.18
2019-02-07T09:14:45.695Z,51.70
2019-02-07T09:17:54.417Z,54.25
2019-02-07T09:21:02.733Z,47.93
2019-02-07T09:24:11.561Z,43.58
2019-02-07T09:27:18.950Z,43.85
2019-02-07T09:30:29.519Z,47.48
2019-02-07T09:33:32.301Z,45.28
2019-02-07T09:36:44.200Z,42.88
2019-02-07T09:40:02.346Z,55.40
2019-02-07T09:43:10.148Z,48.48
2019-02-07T09:46:25.606Z,47.67
2019-02-07T09:49:25.956Z,48.05
2019-02-07T09:52:25.564Z,45.70
2019-02-07T09:55:33.230Z,44.85
2019-02-07T09:58:31.542Z,47.20
2019-02-07T10:01:58.697Z,45.95
2019-02-07T10:05:01.791Z,47.33
2019-02-07T10:08:13.447Z,54.55
2019-02-07T10:11:40.842Z,46.00
2019-02-07T10:14:46.782Z,42.25
2019-02-07T10:17:54.080Z,48.02
2019-02-07T10:21:01.893Z,40.60
2019-02-07T10:24:11.012Z,59.55
2019-02-07T10:27:20.059Z,39.40
2019-02-07T10:30:44.960Z,46.13
2019-02-07T10:34:09.371Z,46.80
2019-02-07T10:37:20.941Z,41.50
2019-02-07T10:40:26.081Z,37.17
2019-02-07T10:43:33.267Z,50.03
2019-02-07T10:46:41.585Z,44.67
2019-02-07T10:49:58.977Z,44.00
2019-02-07T10:53:12.547Z,48.87
2019-02-07T10:56:20.453Z,34.60
2019-02-07T10:59:41.466Z,39.42
2019-02-07T11:02:50.669Z,38.65
2019-02-07T11:05:58.298Z,34.55
2019-02-07T11:09:05.999Z,36.85
2019-02-07T11:12:17.179Z,39.25
2019-02-07T11:15:26.821Z,42.83
2019-02-07T11:18:35.448Z,38.33
2019-02-07T11:21:39.538Z,43.42
2019-02-07T11:24:47.468Z,39.53
2019-02-07T11:27:55.165Z,36.50
2019-02-07T11:31:19.630Z,39.60
2019-02-07T11:34:27.355Z,37.67
2019-02-07T11:37:39.150Z,45.50
2019-02-07T11:40:50.539Z,38.42
2019-02-07T11:44:15.544Z,43.23
2019-02-07T11:47:27.710Z,39.33
2019-02-07T11:50:50.093Z,45.23
2019-02-07T11:54:10.634Z,41.65
2019-02-07T11:57:17.882Z,40.88
2019-02-07T12:00:31.524Z,36.77
2019-02-07T12:03:38.707Z,40.15
2019-02-07T12:06:46.511Z,34.67
2019-02-07T12:09:52.885Z,40.78
2019-02-07T12:13:11.125Z,39.92
2019-02-07T12:16:35.180Z,41.08
2019-02-07T12:19:42.068Z,47.27
2019-02-07T12:22:53.885Z,39.42
2019-02-07T12:26:01.895Z,40.98
2019-02-07T12:29:06.929Z,42.60
2019-02-07T12:32:14.322Z,37.55
2019-02-07T12:35:31.032Z,39.18
2019-02-07T12:38:48.615Z,37.95
2019-02-07T12:41:59.128Z,39.00
2019-02-07T12:45:08.054Z,38.53
2019-02-07T12:48:26.096Z,38.98
2019-02-07T12:51:37.485Z,35.43
2019-02-07T12:55:01.229Z,38.50
2019-02-07T12:58:21.921Z,41.45
2019-02-07T13:01:36.937Z,40.10
2019-02-07T13:04:49.736Z,45.33
2019-02-07T13:07:57.515Z,34.73
2019-02-07T13:11:05.364Z,33.23
2019-02-07T13:14:23.712Z,40.25
2019-02-07T13:17:32.636Z,39.10
2019-02-07T13:21:06.343Z,72.75
2019-02-07T13:24:13.636Z,28.32
2019-02-07T13:27:28.524Z,35.00
2019-02-07T13:30:47.641Z,27.73
2019-02-07T13:33:55.369Z,29.30
2019-02-07T13:37:02.952Z,24.90
2019-02-07T13:40:20.980Z,25.08
2019-02-07T13:43:26.021Z,24.82
2019-02-07T13:46:42.309Z,28.10
2019-02-07T13:50:00.986Z,17.57
2019-02-07T13:53:08.496Z,20.55
2019-02-07T13:56:21.192Z,25.35
2019-02-07T13:59:23.487Z,17.87
2019-02-07T14:02:32.428Z,28.70
2019-02-07T14:05:38.636Z,22.75
2019-02-07T14:08:56.932Z,18.35
2019-02-07T14:11:58.896Z,18.67
2019-02-07T14:15:13.821Z,19.20
2019-02-07T14:18:22.283Z,17.15
2019-02-07T14:21:25.067Z,20.75
2019-02-07T14:24:32.205Z,21.97
2019-02-07T14:27:56.029Z,18.52
2019-02-07T14:31:10.382Z,13.62
2019-02-07T14:34:29.449Z,26.57
2019-02-07T14:37:41.517Z,17.32
2019-02-07T14:40:48.853Z,16.12
2019-02-07T14:43:51.663Z,13.75
2019-02-07T14:46:49.291Z,21.85
2019-02-07T14:49:40.217Z,15.80
2019-02-07T14:52:29.789Z,15.30
2019-02-07T14:55:19.333Z,15.75
2019-02-07T14:58:09.056Z,10.72
2019-02-07T15:00:59.024Z,15.80
2019-02-07T15:03:48.721Z,9.48
2019-02-07T15:06:38.453Z,9.23
2019-02-07T15:09:28.056Z,12.13
2019-02-07T15:12:17.796Z,15.40
2019-02-07T15:15:08.982Z,14.07
2019-02-07T15:17:58.605Z,17.30
2019-02-07T15:20:48.723Z,11.45
2019-02-07T15:23:38.267Z,22.30
2019-02-07T15:26:27.995Z,23.50
2019-02-07T15:29:17.901Z,13.85
2019-02-07T15:32:07.912Z,14.68
2019-02-07T15:34:57.891Z,20.00
2019-02-07T15:37:47.980Z,18.65
2019-02-07T15:40:38.062Z,15.10
2019-02-07T15:43:28.253Z,9.63
2019-02-07T15:46:18.255Z,16.48
2019-02-07T15:49:08.055Z,12.80
2019-02-07T15:51:57.700Z,9.68
2019-02-07T15:54:47.566Z,8.78
2019-02-07T15:57:37.171Z,17.42
2019-02-07T16:00:44.759Z,11.03
2019-02-07T16:03:40.270Z,14.03
2019-02-07T16:06:29.963Z,15.25
2019-02-07T16:09:20.340Z,10.05
2019-02-07T16:12:10.718Z,11.50
2019-02-07T16:15:01.487Z,10.25
2019-02-07T16:17:52.163Z,13.68
2019-02-07T16:20:48.866Z,19.37
2019-02-07T16:23:33.879Z,8.70
2019-02-07T16:26:23.743Z,18.92
2019-02-07T16:29:13.616Z,15.35
2019-02-07T16:32:03.716Z,16.65
2019-02-07T16:34:53.812Z,14.60
2019-02-07T16:37:43.482Z,28.95
2019-02-07T16:40:33.291Z,9.08
2019-02-07T16:43:22.819Z,11.48
2019-02-07T16:46:12.941Z,14.40
2019-02-07T16:49:02.701Z,20.80
2019-02-07T16:51:52.853Z,16.20
2019-02-07T16:54:42.895Z,9.40
2019-02-07T16:57:33.455Z,13.20
2019-02-07T17:00:24.871Z,15.80
2019-02-07T17:03:16.305Z,14.25
2019-02-07T17:06:07.923Z,11.35
2019-02-07T17:09:00.024Z,9.30
2019-02-07T17:11:50.061Z,11.48
2019-02-07T17:14:39.932Z,13.78
2019-02-07T17:17:29.764Z,13.40
2019-02-07T17:20:29.960Z,11.40
2019-02-07T17:23:19.881Z,9.48
2019-02-07T17:26:09.851Z,15.35
2019-02-07T17:28:59.534Z,15.05
2019-02-07T17:31:49.807Z,11.38
2019-02-07T17:34:39.383Z,18.87
2019-02-07T17:37:29.055Z,16.52
2019-02-07T17:40:19.764Z,15.25
2019-02-07T17:43:09.265Z,11.85
2019-02-07T17:45:59.114Z,13.53
2019-02-07T17:48:48.938Z,17.60
2019-02-07T17:51:39.182Z,13.90
2019-02-07T17:54:28.656Z,10.58
2019-02-07T17:57:18.923Z,12.55
2019-02-07T18:00:32.189Z,7.78
2019-02-07T18:03:21.664Z,7.72
2019-02-07T18:06:11.560Z,12.63
2019-02-07T18:09:01.723Z,9.43
2019-02-07T18:11:53.286Z,9.38
2019-02-07T18:14:43.084Z,7.55
2019-02-07T18:17:32.876Z,8.33
2019-02-07T18:20:23.195Z,17.80
2019-02-07T18:23:13.009Z,12.93
2019-02-07T18:26:02.800Z,14.68
2019-02-07T18:28:52.266Z,12.73
2019-02-07T18:31:41.940Z,8.13
2019-02-07T18:34:31.700Z,14.53
2019-02-07T18:37:21.390Z,5.50
2019-02-07T18:40:14.694Z,6.83
2019-02-07T18:43:05.316Z,9.65
2019-02-07T18:45:55.348Z,8.23
2019-02-07T18:48:46.648Z,10.15
2019-02-07T18:51:45.140Z,10.03
2019-02-07T18:54:28.351Z,6.55
2019-02-07T18:57:18.092Z,9.25
2019-02-07T19:00:10.044Z,7.75
2019-02-07T19:03:00.283Z,10.68
2019-02-07T19:05:50.469Z,15.48
2019-02-07T19:08:40.253Z,11.33
2019-02-07T19:11:30.937Z,7.55
2019-02-07T19:14:21.014Z,8.90
2019-02-07T19:17:10.705Z,11.15
2019-02-07T19:20:00.344Z,11.85
2019-02-07T19:22:49.974Z,6.60
2019-02-07T19:25:39.604Z,8.50
2019-02-07T19:28:29.762Z,7.70
2019-02-07T19:31:19.782Z,6.15
2019-02-07T19:34:09.376Z,5.28
2019-02-07T19:36:59.022Z,7.55
2019-02-07T19:39:49.021Z,5.67
2019-02-07T19:42:39.121Z,9.40
2019-02-07T19:45:29.003Z,5.03
2019-02-07T19:48:18.591Z,9.05
2019-02-07T19:51:08.591Z,6.10
2019-02-07T19:53:58.390Z,5.78
2019-02-07T19:56:48.353Z,11.12
2019-02-07T19:59:37.933Z,7.62
2019-02-07T20:02:27.704Z,5.53
2019-02-07T20:05:17.821Z,4.03
2019-02-07T20:08:07.943Z,4.70
2019-02-07T20:10:58.004Z,4.80
2019-02-07T20:13:47.553Z,6.80
2019-02-07T20:16:37.611Z,5.42
2019-02-07T20:19:27.603Z,8.28
2019-02-07T20:22:20.252Z,6.35
2019-02-07T20:25:10.629Z,6.58
2019-02-07T20:28:01.035Z,4.12
2019-02-07T20:33:41.093Z,7.85
2019-02-07T20:36:32.515Z,7.42
2019-02-07T20:39:22.026Z,5.30
2019-02-07T20:42:12.175Z,6.12
2019-02-07T20:45:02.116Z,6.90
2019-02-07T20:47:52.446Z,7.12
2019-02-07T20:50:42.067Z,7.12
2019-02-07T20:53:31.811Z,6.65
2019-02-07T20:56:21.534Z,8.33
2019-02-07T20:59:11.555Z,14.95
2019-02-07T21:02:01.233Z,6.30
2019-02-07T21:04:51.231Z,5.12
2019-02-07T21:07:41.451Z,6.83
2019-02-07T21:10:32.211Z,9.65
2019-02-07T21:13:22.123Z,12.50
2019-02-07T21:16:12.018Z,8.75
2019-02-07T21:19:01.972Z,10.72
2019-02-07T21:21:51.747Z,10.30
2019-02-07T21:24:41.633Z,11.73
2019-02-07T21:27:31.265Z,8.43
2019-02-07T21:30:23.451Z,9.95
2019-02-07T21:33:13.255Z,14.60
2019-02-07T21:36:03.236Z,14.45
2019-02-07T21:38:53.572Z,9.98
2019-02-07T21:41:43.293Z,16.62
2019-02-07T21:44:34.012Z,11.43
2019-02-07T21:47:24.063Z,14.15
2019-02-07T21:50:16.424Z,15.38
2019-02-07T21:53:06.295Z,7.22
2019-02-07T21:55:56.215Z,16.25
2019-02-07T21:58:46.487Z,10.48
2019-02-07T22:01:36.661Z,15.65
2019-02-07T22:04:26.636Z,18.35
2019-02-07T22:07:16.355Z,14.53
2019-02-07T22:10:07.175Z,18.00
2019-02-07T22:12:57.354Z,25.75
2019-02-07T22:15:47.402Z,23.05
2019-02-07T22:18:37.385Z,15.93
2019-02-07T22:21:27.236Z,14.15
2019-02-07T22:24:16.873Z,16.50
2019-02-07T22:27:06.471Z,15.08
2019-02-07T22:29:56.603Z,14.55
2019-02-07T22:32:46.788Z,16.97
2019-02-07T22:35:36.674Z,19.07
2019-02-07T22:38:26.638Z,16.77
2019-02-07T22:41:16.535Z,14.93
2019-02-07T22:44:06.683Z,17.02
2019-02-07T22:46:56.514Z,26.20
2019-02-07T22:49:46.488Z,17.70
2019-02-07T22:52:36.107Z,13.62
2019-02-07T22:55:25.742Z,9.28
2019-02-07T22:58:15.640Z,15.10
2019-02-07T23:01:45.825Z,11.68
2019-02-07T23:04:35.527Z,14.75
2019-02-07T23:07:25.775Z,8.15
2019-02-07T23:10:15.351Z,10.93
2019-02-07T23:13:06.036Z,20.90
2019-02-07T23:15:57.178Z,12.78
2019-02-07T23:18:47.024Z,14.75
2019-02-07T23:21:36.871Z,11.90
2019-02-07T23:24:27.595Z,17.42
2019-02-07T23:27:17.380Z,16.62
2019-02-07T23:30:09.357Z,15.98
2019-02-07T23:32:59.996Z,12.18
2019-02-07T23:35:49.941Z,15.60
2019-02-07T23:38:40.034Z,18.35
2019-02-07T23:41:30.206Z,22.93
2019-02-07T23:44:20.531Z,22.20
2019-02-07T23:47:10.345Z,14.63
2019-02-07T23:50:00.925Z,17.00
2019-02-07T23:52:51.097Z,15.85
2019-02-07T23:55:41.071Z,18.65
2019-02-07T23:58:30.886Z,23.27
